Time;durP1;ratioP1;P1;durP2;ratioP2;P2;SDS_P1;SDS_P2;PMS_P1;PMS_P2;Temp;Humidity;BMP_temperature;BMP_pressure;BME280_temperature;BME280_humidity;BME280_pressure;Samples;Min_cycle;Max_cycle;Signal;HPM_P1;HPM_P2
2021/11/20 00:01:34;;;;;;;14.55;7.20;;;;;;;0.39;100.00;97232.06;5055687;28;20088;-68
2021/11/20 00:04:00;;;;;;;14.52;7.90;;;;;;;0.44;100.00;97230.66;5039357;28;20053;-69
2021/11/20 00:06:30;;;;;;;15.07;7.72;;;;;;;0.17;100.00;97196.91;5039350;28;20096;-70
2021/11/20 00:08:56;;;;;;;;;;;;;;;0.45;100.00;97215.53;5060216;28;20087;-69
2021/11/20 00:11:25;;;;;;;13.38;6.63;;;;;;;0.41;100.00;97206.19;5078382;28;20024;-69
2021/11/20 00:13:51;;;;;;;15.63;7.50;;;;;;;0.39;100.00;97200.19;5079329;28;20094;-74
2021/11/20 00:16:20;;;;;;;14.38;7.05;;;;;;;0.26;100.00;97167.78;5060844;28;20075;-71
2021/11/20 00:18:46;;;;;;;14.93;7.28;;;;;;;0.46;100.00;97199.44;5055630;28;20493;-71
2021/11/20 00:21:25;;;;;;;14.13;7.07;;;;;;;0.44;100.00;97185.47;5055049;28;20048;-70
2021/11/20 00:23:56;;;;;;;15.27;6.75;;;;;;;0.47;100.00;97176.34;5073160;28;20097;-71
2021/11/20 00:26:28;;;;;;;16.45;7.25;;;;;;;0.43;100.00;97165.16;5055434;28;20075;-70
2021/11/20 00:31:30;;;;;;;17.60;6.57;;;;;;;0.38;100.00;97124.09;5055627;28;20106;-71
2021/11/20 00:33:56;;;;;;;16.30;7.03;;;;;;;0.45;100.00;97138.47;5055112;28;20082;-68
2021/11/20 00:36:25;;;;;;;17.98;6.80;;;;;;;0.48;100.00;97124.88;5038433;28;20056;-71
2021/11/20 00:38:51;;;;;;;13.90;6.10;;;;;;;0.45;100.00;97111.88;5005899;28;20518;-68
2021/11/20 00:41:24;;;;;;;13.82;6.68;;;;;;;0.45;100.00;97109.22;5071595;28;20060;-68
2021/11/20 00:43:51;;;;;;;13.25;6.00;;;;;;;0.50;100.00;97100.81;5073188;28;20133;-68
2021/11/20 00:46:20;;;;;;;14.88;6.88;;;;;;;0.38;100.00;97071.78;5074904;28;20557;-69
2021/11/20 00:48:47;;;;;;;14.77;7.22;;;;;;;0.43;100.00;97068.66;5059303;28;20143;-71
2021/11/20 00:51:15;;;;;;;16.40;7.45;;;;;;;0.42;100.00;97062.53;5059617;28;20139;-70
2021/11/20 00:53:42;;;;;;;15.93;7.53;;;;;;;0.26;100.00;97029.63;5055424;28;20597;-69
2021/11/20 00:56:09;;;;;;;13.77;6.47;;;;;;;0.40;100.00;97042.41;5055270;28;20060;-70
2021/11/20 00:58:36;;;;;;;15.18;7.13;;;;;;;0.39;100.00;97040.72;5022070;28;20300;-70
2021/11/20 01:01:05;;;;;;;14.20;8.35;;;;;;;0.20;100.00;96999.22;5054901;28;20398;-69
2021/11/20 01:03:32;;;;;;;14.98;7.53;;;;;;;0.37;100.00;97024.13;5054688;28;20049;-69
2021/11/20 01:05:59;;;;;;;14.57;8.13;;;;;;;0.27;100.00;97004.75;5054916;28;20056;-69
2021/11/20 01:08:32;;;;;;;15.15;7.38;;;;;;;0.29;100.00;97002.78;5054171;28;20082;-72
2021/11/20 01:11:15;;;;;;;19.75;10.13;;;;;;;0.28;100.00;96995.78;5054433;28;20058;-70
2021/11/20 01:13:40;;;;;;;16.00;7.32;;;;;;;0.07;100.00;96954.44;5037540;28;20186;-68
2021/11/20 01:16:12;;;;;;;17.23;7.93;;;;;;;0.04;100.00;96941.47;5073056;28;20544;-68
2021/11/20 01:18:38;;;;;;;16.70;6.93;;;;;;;0.08;100.00;96932.22;5056899;28;20435;-74
2021/11/20 01:21:14;;;;;;;18.05;6.93;;;;;;;-0.08;100.00;96913.47;5044414;28;20563;-73
2021/11/20 01:23:41;;;;;;;21.60;9.70;;;;;;;0.14;100.00;96941.38;5056209;28;20098;-67
2021/11/20 01:26:11;;;;;;;20.67;7.97;;;;;;;0.13;100.00;96940.53;5058262;28;20135;-70
2021/11/20 01:28:45;;;;;;;17.23;9.05;;;;;;;0.15;100.00;96916.50;5057388;28;20064;-70
2021/11/20 01:31:40;;;;;;;20.90;9.00;;;;;;;0.17;100.00;96909.19;5070406;28;20060;-68
2021/11/20 01:34:07;;;;;;;16.55;8.07;;;;;;;0.17;100.00;96894.09;5070950;28;20055;-69
2021/11/20 01:36:36;;;;;;;19.50;7.72;;;;;;;0.22;100.00;96886.50;5054834;28;20067;-68
2021/11/20 01:39:10;;;;;;;17.13;8.80;;;;;;;0.10;100.00;96858.50;5037007;28;20040;-67
2021/11/20 01:41:47;;;;;;;15.43;7.82;;;;;;;0.29;100.00;96872.59;5056036;28;20069;-67
2021/11/20 01:44:39;;;;;;;18.70;8.02;;;;;;;0.16;100.00;96833.16;5041195;28;20060;-68
2021/11/20 01:47:22;;;;;;;16.45;7.90;;;;;;;0.31;100.00;96844.06;5037783;28;20056;-69
2021/11/20 01:50:05;;;;;;;16.90;8.93;;;;;;;0.34;100.00;96835.78;5038222;28;20057;-70
2021/11/20 01:52:56;;;;;;;14.18;7.50;;;;;;;0.09;100.00;96769.22;5038064;28;20535;-69
2021/11/20 01:55:32;;;;;;;14.73;7.13;;;;;;;0.27;100.00;96798.38;5005540;28;20067;-69
2021/11/20 01:58:22;;;;;;;13.23;6.53;;;;;;;0.21;100.00;96781.22;5054398;28;20131;-68
2021/11/20 02:00:54;;;;;;;13.07;7.03;;;;;;;0.21;100.00;96778.56;5038041;28;20067;-68
2021/11/20 02:03:24;;;;;;;13.80;8.10;;;;;;;0.15;100.00;96765.09;5072911;28;20441;-69
2021/11/20 02:06:15;;;;;;;15.45;7.05;;;;;;;0.12;100.00;96758.28;5054173;28;20058;-67
2021/11/20 02:09:09;;;;;;;14.30;7.20;;;;;;;0.08;100.00;96761.41;5055764;28;20498;-67
2021/11/20 02:11:57;;;;;;;13.52;6.85;;;;;;;0.06;100.00;96745.63;5070913;28;20049;-67
2021/11/20 02:14:24;;;;;;;13.02;6.65;;;;;;;-0.03;100.00;96733.28;5070017;28;20079;-67
2021/11/20 02:16:59;;;;;;;13.50;5.38;;;;;;;-0.01;100.00;96720.69;5053171;28;20517;-67
2021/11/20 02:19:31;;;;;;;9.80;4.18;;;;;;;0.01;100.00;96718.72;5070807;28;20052;-70
2021/11/20 02:22:14;;;;;;;12.07;5.65;;;;;;;0.00;100.00;96709.09;5054082;28;20498;-68
2021/11/20 02:24:40;;;;;;;13.45;5.55;;;;;;;-0.03;100.00;96706.75;5053118;28;20335;-68
2021/11/20 02:27:25;;;;;;;14.68;5.90;;;;;;;-0.13;100.00;96669.69;5070862;28;20460;-69
2021/11/20 02:30:25;;;;;;;13.40;5.78;;;;;;;-0.05;100.00;96674.19;5053133;28;20062;-66
2021/11/20 02:33:02;;;;;;;10.70;5.18;;;;;;;-0.06;100.00;96672.53;5023841;28;20153;-68
2021/11/20 02:35:54;;;;;;;11.65;5.60;;;;;;;-0.12;100.00;96660.72;5055492;28;20049;-69
2021/11/20 02:38:25;;;;;;;11.75;4.82;;;;;;;-0.29;100.00;96622.66;5052815;28;20059;-67
2021/11/20 02:40:52;;;;;;;14.43;6.00;;;;;;;-0.31;100.00;96608.69;5053001;28;20052;-67
2021/11/20 02:43:19;;;;;;;11.73;4.32;;;;;;;-0.37;100.00;96593.41;5036447;28;20147;-66
2021/11/20 02:46:05;;;;;;;13.45;5.63;;;;;;;-0.31;100.00;96594.59;5056048;28;20056;-69
2021/11/20 02:48:31;;;;;;;11.73;4.55;;;;;;;-0.23;100.00;96610.56;5069206;28;20063;-69
2021/11/20 02:51:19;;;;;;;13.02;5.25;;;;;;;-0.37;100.00;96588.09;5052253;28;20454;-68
2021/11/20 02:53:58;;;;;;;11.05;4.47;;;;;;;-0.22;100.00;96592.81;5052636;28;20531;-67
2021/11/20 02:56:37;;;;;;;11.05;4.50;;;;;;;-0.28;100.00;96586.31;5070700;28;20052;-68
2021/11/20 02:59:04;;;;;;;13.45;6.05;;;;;;;-0.32;100.00;96572.53;5052466;28;20049;-68
2021/11/20 03:01:39;;;;;;;12.73;5.20;;;;;;;-0.31;100.00;96560.91;5021999;28;20148;-69
2021/11/20 03:04:10;;;;;;;10.90;4.30;;;;;;;-0.36;100.00;96552.63;5052530;28;20044;-70
2021/11/20 03:06:38;;;;;;;11.45;4.72;;;;;;;-0.65;100.00;96486.66;5035784;28;20106;-70
2021/11/20 03:09:08;;;;;;;12.65;5.13;;;;;;;-0.29;100.00;96537.72;5052482;28;20095;-69
2021/11/20 03:11:35;;;;;;;11.35;4.25;;;;;;;-0.29;100.00;96532.41;5069289;28;20064;-68
2021/11/20 03:14:06;;;;;;;11.35;5.40;;;;;;;-0.47;100.00;96497.19;5035505;28;20050;-67
2021/11/20 03:16:41;;;;;;;12.05;4.75;;;;;;;-0.35;100.00;96506.50;5070615;28;20107;-68
2021/11/20 03:19:07;;;;;;;12.57;5.90;;;;;;;-0.55;100.00;96467.94;5036049;28;20049;-68
2021/11/20 03:21:36;;;;;;;11.55;4.95;;;;;;;-0.29;100.00;96499.75;5052211;28;20523;-69
2021/11/20 03:24:04;;;;;;;13.60;6.00;;;;;;;-0.36;100.00;96498.72;5052160;28;20083;-70
2021/11/20 03:26:30;;;;;;;12.80;5.03;;;;;;;-0.33;100.00;96480.66;5069275;28;20056;-67
2021/11/20 03:28:59;;;;;;;11.55;5.88;;;;;;;-0.41;100.00;96459.38;5052642;28;20049;-66
2021/11/20 03:31:25;;;;;;;11.20;4.47;;;;;;;-0.29;100.00;96466.06;5052737;28;20191;-69
2021/11/20 03:33:51;;;;;;;11.85;5.30;;;;;;;-0.32;100.00;96445.16;5056127;28;20197;-71
2021/11/20 03:36:17;;;;;;;11.60;4.68;;;;;;;-0.32;100.00;96441.66;5039047;28;20056;-68
2021/11/20 03:38:43;;;;;;;13.90;5.07;;;;;;;-0.35;100.00;96442.81;5070408;28;20459;-67
2021/11/20 03:41:10;;;;;;;12.43;4.90;;;;;;;-0.35;100.00;96432.19;5019580;28;20620;-68
2021/11/20 03:43:36;;;;;;;11.02;4.70;;;;;;;-0.36;100.00;96422.59;5052512;28;20135;-69
2021/11/20 03:46:02;;;;;;;12.30;4.88;;;;;;;-0.36;100.00;96406.66;5036977;28;20479;-69
2021/11/20 03:48:30;;;;;;;12.30;5.93;;;;;;;-0.36;100.00;96398.72;5022094;28;20118;-68
2021/11/20 03:50:57;;;;;;;13.15;5.22;;;;;;;-0.61;100.00;96341.28;5054782;28;20060;-68
2021/11/20 03:53:23;;;;;;;11.20;4.35;;;;;;;-0.46;100.00;96371.47;5071480;28;20109;-70
2021/11/20 03:55:50;;;;;;;12.98;5.38;;;;;;;-0.37;100.00;96375.78;5037745;28;20583;-70
2021/11/20 03:58:20;;;;;;;12.05;4.13;;;;;;;-0.41;100.00;96358.53;5071273;28;20060;-69
2021/11/20 04:00:53;;;;;;;13.23;3.80;;;;;;;-0.38;100.00;96352.91;5053566;28;20449;-70
2021/11/20 04:03:22;;;;;;;;;;;;;;;-0.40;100.00;96346.97;5057221;28;20441;-70
2021/11/20 04:05:50;;;;;;;11.68;3.85;;;;;;;-0.40;100.00;96333.69;5024160;28;19982;-70
2021/11/20 04:08:16;;;;;;;11.52;4.85;;;;;;;-0.42;100.00;96327.72;5023588;28;20080;-70
2021/11/20 04:10:44;;;;;;;12.40;4.63;;;;;;;-0.55;100.00;96298.16;5040173;28;20138;-69
2021/11/20 04:13:10;;;;;;;11.55;4.80;;;;;;;-0.42;100.00;96297.69;5055712;28;20049;-69
2021/11/20 04:15:36;;;;;;;10.63;3.20;;;;;;;-0.45;100.00;96298.03;5039314;28;20409;-71
2021/11/20 04:18:03;;;;;;;13.75;4.65;;;;;;;-0.49;100.00;96282.44;5038758;28;20139;-70
2021/11/20 04:20:29;;;;;;;9.77;3.42;;;;;;;-0.60;100.00;96253.56;5055336;28;20509;-67
2021/11/20 04:22:55;;;;;;;10.05;3.50;;;;;;;-0.42;100.00;96279.13;5038736;28;20055;-67
2021/11/20 04:25:22;;;;;;;10.23;4.05;;;;;;;-0.46;100.00;96259.22;5055709;28;20513;-70
2021/11/20 04:27:56;;;;;;;10.93;4.10;;;;;;;-0.68;100.00;96223.59;5073732;28;20130;-69
2021/11/20 04:30:37;;;;;;;10.27;3.60;;;;;;;-0.47;100.00;96253.09;5055348;28;20083;-69
2021/11/20 04:33:04;;;;;;;9.25;3.75;;;;;;;-0.51;100.00;96230.56;5038909;28;20131;-71
2021/11/20 04:35:30;;;;;;;11.52;3.80;;;;;;;-0.41;100.00;96248.94;5038744;28;20080;-68
2021/11/20 04:37:56;;;;;;;10.98;4.40;;;;;;;-0.43;100.00;96243.81;5021930;28;20049;-68
2021/11/20 04:40:23;;;;;;;9.95;3.40;;;;;;;-0.42;100.00;96249.94;5021658;28;20071;-70
2021/11/20 04:42:51;;;;;;;10.68;3.78;;;;;;;-0.42;100.00;96234.00;5038564;28;20143;-69
2021/11/20 04:45:20;;;;;;;10.25;4.15;;;;;;;-0.62;100.00;96199.88;5055822;28;20144;-69
2021/11/20 04:47:46;;;;;;;12.43;5.47;;;;;;;-0.45;100.00;96224.56;5055466;28;20363;-70
2021/11/20 04:50:20;;;;;;;10.38;4.63;;;;;;;-0.55;100.00;96202.66;5055497;28;20048;-70
2021/11/20 04:52:46;;;;;;;10.68;3.58;;;;;;;-0.45;100.00;96208.63;5038065;28;20526;-69
2021/11/20 04:55:13;;;;;;;11.70;4.38;;;;;;;-0.48;100.00;96193.03;5054650;28;20071;-68
2021/11/20 04:57:40;;;;;;;9.25;3.40;;;;;;;-0.45;100.00;96192.72;5071380;28;20433;-70
2021/11/20 05:00:11;;;;;;;9.65;3.75;;;;;;;-0.44;100.00;96189.06;5037663;28;20048;-68
2021/11/20 05:02:45;;;;;;;11.07;3.38;;;;;;;-0.42;100.00;96187.09;5054573;28;20143;-69
2021/11/20 05:05:16;;;;;;;10.00;3.78;;;;;;;-0.59;100.00;96153.59;5022355;28;20083;-71
2021/11/20 05:07:42;;;;;;;11.63;3.95;;;;;;;-0.79;100.00;96110.72;5054547;28;20076;-70
2021/11/20 05:10:09;;;;;;;10.32;3.92;;;;;;;-0.46;100.00;96153.09;5037730;28;20079;-69
2021/11/20 05:12:35;;;;;;;10.70;3.92;;;;;;;-0.36;100.00;96157.22;5021016;28;20114;-68
2021/11/20 05:15:13;;;;;;;11.10;4.75;;;;;;;-0.37;100.00;96152.91;5055132;28;20564;-68
2021/11/20 05:17:39;;;;;;;10.05;3.90;;;;;;;-0.74;100.00;96093.28;5037806;28;20470;-70
2021/11/20 05:20:09;;;;;;;9.98;3.17;;;;;;;-0.38;100.00;96145.94;5054142;28;20250;-70
2021/11/20 05:22:36;;;;;;;12.57;4.60;;;;;;;-0.52;100.00;96122.75;5054240;28;20055;-70
2021/11/20 05:25:03;;;;;;;10.52;3.92;;;;;;;-0.38;100.00;96140.63;5037624;28;20053;-68
2021/11/20 05:27:31;;;;;;;12.23;4.03;;;;;;;-0.50;100.00;96104.84;5071181;28;20065;-69
2021/11/20 05:30:17;;;;;;;10.30;4.00;;;;;;;-0.26;100.00;96146.41;5021276;28;20052;-67
2021/11/20 05:32:45;;;;;;;10.32;3.67;;;;;;;-0.30;100.00;96126.50;5037743;28;20052;-71
2021/11/20 05:35:12;;;;;;;10.90;4.13;;;;;;;-0.33;100.00;96133.00;5037651;28;20060;-70
2021/11/20 05:37:38;;;;;;;11.77;3.90;;;;;;;-0.38;100.00;96114.09;5037327;28;20064;-70
2021/11/20 05:40:06;;;;;;;11.35;4.07;;;;;;;-0.34;100.00;96115.41;5037868;28;20454;-71
2021/11/20 05:42:33;;;;;;;10.77;3.40;;;;;;;-0.37;100.00;96107.78;5039675;28;20498;-71
2021/11/20 05:44:59;;;;;;;10.77;3.85;;;;;;;-0.63;100.00;96067.41;5041408;28;20528;-68
2021/11/20 05:47:25;;;;;;;11.80;4.05;;;;;;;-0.34;100.00;96110.09;5039305;28;20126;-70
2021/11/20 05:49:53;;;;;;;12.40;4.68;;;;;;;-0.70;100.00;96045.22;5054575;28;20048;-70
2021/11/20 05:52:19;;;;;;;11.15;3.83;;;;;;;-0.37;100.00;96099.81;5053918;28;20060;-71
2021/11/20 05:54:46;;;;;;;12.45;4.30;;;;;;;-0.36;100.00;96090.88;5071459;28;20056;-69
2021/11/20 05:57:19;;;;;;;13.80;4.15;;;;;;;-0.40;100.00;96088.72;5038122;28;20510;-71
2021/11/20 05:59:46;;;;;;;10.25;4.35;;;;;;;-0.34;100.00;96078.25;5036971;28;20086;-70
2021/11/20 06:02:17;;;;;;;11.48;3.85;;;;;;;-0.51;100.00;96045.66;5037266;28;20052;-70
2021/11/20 06:04:51;;;;;;;14.63;4.20;;;;;;;-0.37;100.00;96067.97;5053778;28;20049;-70
2021/11/20 06:07:17;;;;;;;13.10;4.65;;;;;;;-0.32;100.00;96064.84;5037498;28;20054;-72
2021/11/20 06:09:43;;;;;;;10.85;4.03;;;;;;;-0.23;100.00;96073.59;5053593;28;20048;-68
2021/11/20 06:12:12;;;;;;;9.77;3.70;;;;;;;-0.23;100.00;96073.59;5021017;28;20119;-71
2021/11/20 06:14:39;;;;;;;12.05;4.78;;;;;;;-0.16;100.00;96072.72;5054115;28;20056;-70
2021/11/20 06:17:06;;;;;;;11.30;4.15;;;;;;;-0.19;100.00;96064.28;5054248;28;20045;-69
2021/11/20 06:19:37;;;;;;;13.93;5.38;;;;;;;-0.19;100.00;96059.78;5022161;28;20049;-70
2021/11/20 06:22:03;;;;;;;10.40;3.42;;;;;;;-0.16;100.00;96066.59;5037553;28;20120;-70
2021/11/20 06:24:29;;;;;;;14.15;3.75;;;;;;;-0.36;100.00;96015.78;5036678;28;20048;-70
2021/11/20 06:26:55;;;;;;;13.43;4.55;;;;;;;-0.02;100.00;96065.84;5004559;28;20168;-70
2021/11/20 06:29:24;;;;;;;12.20;4.82;;;;;;;-0.08;100.00;96051.44;5056043;28;20048;-72
2021/11/20 06:31:56;;;;;;;18.02;4.60;;;;;;;-0.06;100.00;96045.97;5056746;28;20398;-70
2021/11/20 06:34:37;;;;;;;13.60;4.00;;;;;;;-0.07;100.00;96036.38;5025993;28;20048;-71
2021/11/20 06:37:24;;;;;;;10.07;4.00;;;;;;;-0.11;100.00;96029.72;5024399;28;20059;-71
2021/11/20 06:39:58;;;;;;;11.38;4.20;;;;;;;0.00;100.00;96042.63;5054818;28;20075;-70
2021/11/20 06:42:24;;;;;;;15.75;4.80;;;;;;;-0.11;100.00;96024.41;5053495;28;20474;-70
2021/11/20 06:44:51;;;;;;;14.85;4.90;;;;;;;0.05;100.00;96034.13;5070725;28;20131;-70
2021/11/20 06:47:17;;;;;;;19.00;6.57;;;;;;;-0.27;100.00;95977.56;5036482;28;20070;-70
2021/11/20 06:49:43;;;;;;;11.35;5.00;;;;;;;0.06;100.00;96015.34;5036444;28;20086;-70
2021/11/20 06:52:09;;;;;;;19.33;4.80;;;;;;;0.02;100.00;96016.72;5019914;28;20074;-71
2021/11/20 06:54:55;;;;;;;12.93;4.93;;;;;;;-0.05;100.00;95999.84;5025052;28;20088;-70
2021/11/20 06:57:54;;;;;;;11.88;4.75;;;;;;;0.22;100.00;96031.19;4981272;28;20090;-70
2021/11/20 07:00:51;;;;;;;13.52;4.55;;;;;;;0.17;100.00;96022.91;5054829;28;20101;-71
2021/11/20 07:03:50;;;;;;;14.75;4.07;;;;;;;0.31;100.00;96033.81;5039381;28;20151;-71
2021/11/20 07:06:20;;;;;;;10.35;4.70;;;;;;;0.29;100.00;96033.13;5070170;28;20084;-74
2021/11/20 07:08:47;;;;;;;13.57;4.88;;;;;;;0.27;100.00;96025.34;5021231;28;20096;-73
2021/11/20 07:11:14;;;;;;;14.70;4.72;;;;;;;0.32;100.00;96027.47;5012000;28;20049;-73
2021/11/20 07:13:41;;;;;;;13.30;4.68;;;;;;;0.23;100.00;96000.97;5032141;28;20518;-74
2021/11/20 07:16:10;;;;;;;13.15;5.30;;;;;;;0.10;100.00;95968.88;5023937;28;20049;-73
2021/11/20 07:18:39;;;;;;;14.88;5.05;;;;;;;0.52;100.00;96023.34;5033854;28;20045;-74
2021/11/20 07:21:27;;;;;;;11.18;4.65;;;;;;;0.62;100.00;96023.94;5020098;28;20049;-73
2021/11/20 07:24:23;;;;;;;10.15;3.80;;;;;;;0.29;100.00;95940.16;5020244;28;20187;-79
2021/11/20 07:26:50;;;;;;;12.20;3.67;;;;;;;0.86;100.00;96016.75;5019250;28;20053;-75
2021/11/20 07:29:17;;;;;;;12.05;3.75;;;;;;;0.92;100.00;96000.09;5003652;28;20572;-74
2021/11/20 07:32:15;;;;;;;15.77;4.20;;;;;;;0.69;100.00;95968.22;4992146;28;20053;-74
2021/11/20 07:34:41;;;;;;;11.07;3.80;;;;;;;0.88;100.00;95988.16;5049257;28;20079;-73
2021/11/20 07:37:07;;;;;;;12.77;3.90;;;;;;;1.06;100.00;96023.22;5000665;28;20052;-74
2021/11/20 07:39:34;;;;;;;12.30;4.10;;;;;;;0.91;100.00;95987.78;5018904;28;20641;-74
2021/11/20 07:42:01;;;;;;;8.90;3.67;;;;;;;1.13;100.00;96012.66;5029984;28;20555;-73
2021/11/20 07:44:28;;;;;;;12.50;4.50;;;;;;;1.22;100.00;96021.38;5035414;28;20073;-77
2021/11/20 07:46:54;;;;;;;14.07;5.82;;;;;;;1.28;100.00;96021.50;5032360;28;20053;-76
2021/11/20 07:49:26;;;;;;;12.90;5.78;;;;;;;1.29;100.00;96027.63;5019430;28;20220;-74
2021/11/20 07:51:53;;;;;;;15.52;5.38;;;;;;;1.25;100.00;96000.56;5032014;28;20049;-74
2021/11/20 07:54:20;;;;;;;14.88;5.80;;;;;;;1.38;100.00;96008.72;5000033;28;20049;-73
2021/11/20 07:57:24;;;;;;;12.48;4.80;;;;;;;1.29;100.00;95979.75;4932852;28;20094;-74
2021/11/20 07:59:56;;;;;;;13.30;5.35;;;;;;;1.52;100.00;96000.91;4957378;28;20206;-76
2021/11/20 08:02:44;;;;;;;10.50;3.58;;;;;;;1.37;100.00;95967.16;4977512;28;20045;-74
2021/11/20 08:05:13;;;;;;;12.73;3.55;;;;;;;1.67;100.00;95994.56;5004559;28;20446;-76
2021/11/20 08:07:47;;;;;;;10.07;3.17;;;;;;;1.86;100.00;96014.44;5019130;28;20053;-77
2021/11/20 08:10:36;;;;;;;14.10;3.30;;;;;;;2.06;99.80;96024.53;5018660;28;20155;-74
2021/11/20 08:13:03;;;;;;;10.48;2.72;;;;;;;2.21;99.31;96025.31;5395795;23;20245;-75
2021/11/20 08:15:37;;;;;;;6.47;1.80;;;;;;;2.26;97.82;96008.75;5085292;28;20053;-74
2021/11/20 08:18:31;;;;;;;6.35;1.73;;;;;;;2.29;97.12;96013.69;5050697;28;20110;-76
2021/11/20 08:21:19;;;;;;;6.10;1.90;;;;;;;2.54;96.78;96022.16;5036680;28;20049;-75
2021/11/20 08:23:55;;;;;;;5.38;1.50;;;;;;;2.53;96.12;96021.34;5055105;28;20072;-76
2021/11/20 08:26:24;;;;;;;5.82;1.77;;;;;;;2.63;95.34;96024.50;5003920;28;20530;-75
2021/11/20 08:28:49;;;;;;;6.93;1.92;;;;;;;2.74;94.86;96038.31;5052740;28;20056;-75
2021/11/20 08:31:15;;;;;;;6.85;1.95;;;;;;;2.69;95.07;96040.75;5064297;28;20053;-75
2021/11/20 08:33:50;;;;;;;8.90;2.20;;;;;;;2.68;95.25;96033.78;5021656;28;20087;-75
2021/11/20 08:36:33;;;;;;;9.02;1.98;;;;;;;2.69;95.04;96038.91;5053866;28;20493;-75
2021/11/20 08:39:14;;;;;;;7.85;2.38;;;;;;;2.76;94.56;96039.78;5026995;28;20049;-74
2021/11/20 08:41:45;;;;;;;9.43;2.05;;;;;;;2.72;94.68;96048.38;5053062;28;20052;-76
2021/11/20 08:44:12;;;;;;;8.23;1.95;;;;;;;2.73;94.77;96055.34;5037842;28;20101;-75
2021/11/20 08:46:53;;;;;;;7.05;2.35;;;;;;;2.65;94.48;96046.47;5052788;28;20059;-75
2021/11/20 08:49:20;;;;;;;9.18;2.53;;;;;;;2.45;95.01;96024.13;5050710;28;20080;-74
2021/11/20 08:51:49;;;;;;;9.15;2.40;;;;;;;2.58;95.03;96061.56;5034550;28;20045;-74
2021/11/20 08:54:17;;;;;;;11.15;2.63;;;;;;;2.65;95.32;96067.78;5066709;28;20048;-74
2021/11/20 08:56:45;;;;;;;9.10;2.40;;;;;;;2.55;94.74;96050.47;5035114;28;20049;-74
2021/11/20 08:59:24;;;;;;;9.48;3.08;;;;;;;2.71;95.48;96071.56;5052545;28;20049;-74
2021/11/20 09:02:42;;;;;;;9.88;2.55;;;;;;;2.74;94.19;96070.34;5035925;28;20041;-74
2021/11/20 09:05:25;;;;;;;9.88;2.95;;;;;;;2.69;93.59;96078.91;5067589;28;20057;-75
2021/11/20 09:08:05;;;;;;;9.00;2.67;;;;;;;2.73;93.83;96080.19;5032198;28;20493;-74
2021/11/20 09:10:37;;;;;;;8.52;2.97;;;;;;;2.57;94.26;96081.25;5056214;28;20301;-75
2021/11/20 09:13:15;;;;;;;10.77;3.13;;;;;;;2.56;93.31;96081.44;5034945;28;20061;-74
2021/11/20 09:15:44;;;;;;;9.43;2.60;;;;;;;2.61;93.63;96090.53;5051545;28;20056;-71
2021/11/20 09:18:27;;;;;;;13.05;2.80;;;;;;;2.60;93.89;96091.56;5051662;28;20053;-71
2021/11/20 09:20:55;;;;;;;10.63;2.58;;;;;;;2.72;93.06;96080.38;5039075;28;20055;-71
2021/11/20 09:23:36;;;;;;;10.13;2.75;;;;;;;2.54;93.33;96073.63;5036901;28;20060;-70
2021/11/20 09:26:05;;;;;;;9.80;3.22;;;;;;;2.72;93.35;96101.72;5053182;28;20240;-71
2021/11/20 09:28:32;;;;;;;9.52;2.38;;;;;;;2.73;92.69;96112.19;5034576;28;20083;-70
2021/11/20 09:31:01;;;;;;;8.68;2.30;;;;;;;2.75;92.42;96123.50;5022778;28;20539;-70
2021/11/20 09:33:31;;;;;;;15.07;2.55;;;;;;;2.80;92.98;96112.25;5017933;28;20052;-70
2021/11/20 09:35:57;;;;;;;8.45;2.50;;;;;;;2.56;91.53;96094.75;5033093;28;20049;-70
2021/11/20 09:38:38;;;;;;;6.20;1.73;;;;;;;2.77;91.79;96120.63;5017836;28;20063;-70
2021/11/20 09:41:13;;;;;;;14.57;2.25;;;;;;;2.76;91.70;96127.81;5034124;28;20079;-70
2021/11/20 09:43:42;;;;;;;7.60;1.88;;;;;;;2.64;91.72;96140.81;5034405;28;20183;-70
2021/11/20 09:46:16;;;;;;;9.02;2.20;;;;;;;2.50;90.94;96139.00;5068651;28;20180;-70
2021/11/20 09:48:54;;;;;;;6.88;1.60;;;;;;;2.47;91.49;96144.72;5050953;28;20042;-69
2021/11/20 09:51:25;;;;;;;8.23;1.90;;;;;;;2.50;91.64;96147.00;5046296;28;20053;-70
2021/11/20 09:53:55;;;;;;;7.90;1.70;;;;;;;2.35;91.13;96151.53;5050013;28;20080;-70
2021/11/20 09:56:25;;;;;;;5.95;1.65;;;;;;;2.20;91.62;96164.06;5016825;28;20057;-70
2021/11/20 09:59:06;;;;;;;8.70;1.80;;;;;;;2.23;92.25;96179.66;5037136;28;20088;-70
2021/11/20 10:01:50;;;;;;;7.45;1.60;;;;;;;2.13;92.38;96175.44;5026778;28;20053;-70
2021/11/20 10:04:18;;;;;;;7.97;1.70;;;;;;;2.22;93.23;96192.16;5014786;28;20099;-70
2021/11/20 10:06:47;;;;;;;4.88;0.95;;;;;;;2.02;91.49;96188.41;5049022;28;20187;-70
2021/11/20 10:09:28;;;;;;;5.90;1.40;;;;;;;2.03;91.89;96204.19;5049707;28;20044;-70
2021/11/20 10:12:06;;;;;;;8.02;1.90;;;;;;;1.98;91.92;96214.59;5061940;28;20049;-68
2021/11/20 10:14:40;;;;;;;5.40;1.52;;;;;;;1.85;92.39;96191.22;5033556;28;20049;-75
2021/11/20 10:17:30;;;;;;;8.63;1.80;;;;;;;1.88;92.82;96216.69;5066059;28;20123;-74
2021/11/20 10:20:01;;;;;;;7.32;1.75;;;;;;;1.76;92.88;96207.50;5034478;28;20061;-75
2021/11/20 10:23:08;;;;;;;7.25;2.00;;;;;;;1.74;93.22;96233.44;5021247;28;20392;-74
2021/11/20 10:25:46;;;;;;;9.32;2.20;;;;;;;1.78;92.50;96245.41;5046101;28;20048;-74
2021/11/20 10:28:56;;;;;;;8.98;2.20;;;;;;;1.71;92.85;96241.78;5065121;28;20068;-74
2021/11/20 10:31:38;;;;;;;6.63;1.98;;;;;;;1.72;92.71;96256.75;5020916;28;20260;-76
2021/11/20 10:34:22;;;;;;;7.43;2.22;;;;;;;1.76;93.28;96250.91;5038734;28;20061;-75
2021/11/20 10:37:03;;;;;;;6.95;1.88;;;;;;;1.77;93.18;96259.72;5052820;28;20064;-76
2021/11/20 10:39:56;;;;;;;8.48;1.90;;;;;;;1.78;93.22;96266.69;5052022;28;20064;-75
2021/11/20 10:42:34;;;;;;;6.32;1.80;;;;;;;1.57;91.89;96260.22;5026358;28;20503;-75
2021/11/20 10:45:16;;;;;;;7.80;2.20;;;;;;;1.24;93.65;96210.91;5035602;28;20057;-69
2021/11/20 10:48:06;;;;;;;9.73;2.20;;;;;;;1.29;92.97;96240.47;5029985;28;20045;-77
2021/11/20 10:50:48;;;;;;;10.07;2.65;;;;;;;1.61;94.35;96289.94;5051394;28;20049;-78
2021/11/20 10:53:26;;;;;;;9.55;2.63;;;;;;;1.36;93.69;96260.06;5006321;28;20052;-75
2021/11/20 10:56:10;;;;;;;9.65;2.28;;;;;;;1.50;93.89;96295.69;5030852;28;20057;-75
2021/11/20 10:59:08;;;;;;;10.40;2.58;;;;;;;1.52;93.88;96313.16;5043735;28;20067;-76
2021/11/20 11:02:05;;;;;;;8.25;2.35;;;;;;;1.53;93.71;96328.09;5051418;28;20057;-76
2021/11/20 11:04:46;;;;;;;10.27;2.28;;;;;;;1.48;93.37;96338.47;5029813;28;20042;-76
2021/11/20 11:07:24;;;;;;;7.70;2.08;;;;;;;1.52;93.53;96342.44;5032012;28;20707;-77
2021/11/20 11:09:54;;;;;;;7.70;2.20;;;;;;;1.43;92.97;96344.31;5045965;28;20141;-76
2021/11/20 11:12:32;;;;;;;9.55;2.10;;;;;;;1.41;93.33;96350.81;5046725;28;20064;-75
2021/11/20 11:15:14;;;;;;;10.23;1.75;;;;;;;1.25;93.57;96341.09;5034590;28;20063;-76
2021/11/20 11:18:18;;;;;;;10.05;2.15;;;;;;;1.31;93.44;96366.16;5050607;28;20068;-76
2021/11/20 11:21:05;;;;;;;9.35;2.30;;;;;;;1.28;94.08;96366.50;5035018;28;20527;-76
2021/11/20 11:23:43;;;;;;;10.68;2.10;;;;;;;1.28;94.51;96382.47;5050388;28;20104;-75
2021/11/20 11:26:14;;;;;;;9.27;1.98;;;;;;;1.23;94.51;96382.19;5035392;28;20057;-75
2021/11/20 11:28:47;;;;;;;9.63;2.47;;;;;;;1.17;94.56;96381.88;5046864;28;20053;-75
2021/11/20 11:31:26;;;;;;;11.35;2.53;;;;;;;1.22;94.23;96394.66;5044889;28;20057;-76
2021/11/20 11:34:16;;;;;;;9.18;2.10;;;;;;;1.26;94.34;96400.47;5060723;28;20057;-74
2021/11/20 11:36:53;;;;;;;9.88;2.53;;;;;;;1.15;93.37;96386.53;5048152;28;20460;-75
2021/11/20 11:39:25;;;;;;;8.25;2.25;;;;;;;0.80;93.09;96357.75;5043441;28;20057;-71
2021/11/20 11:42:20;;;;;;;6.97;1.55;;;;;;;1.11;93.25;96417.16;5046598;28;20052;-77
2021/11/20 11:45:20;;;;;;;7.22;1.85;;;;;;;1.23;92.15;96438.06;5033408;28;20049;-77
2021/11/20 11:47:52;;;;;;;5.88;1.58;;;;;;;1.26;92.27;96433.22;5002280;28;20121;-74
2021/11/20 11:50:43;;;;;;;8.20;1.88;;;;;;;1.01;93.19;96429.81;5042027;28;20065;-76
2021/11/20 11:53:32;;;;;;;5.75;1.48;;;;;;;1.23;92.65;96469.97;5078530;28;20111;-76
2021/11/20 11:56:10;;;;;;;8.27;1.67;;;;;;;1.10;92.62;96470.53;5081419;28;20095;-69
2021/11/20 11:58:57;;;;;;;6.65;1.58;;;;;;;1.14;92.68;96491.28;5045070;28;20049;-77
2021/11/20 12:01:59;;;;;;;5.90;1.30;;;;;;;1.10;93.13;96486.50;5053281;28;20073;-76